Time;durP1;ratioP1;P1;durP2;ratioP2;P2;SDS_P1;SDS_P2;PMS_P1;PMS_P2;Temp;Humidity;BMP_temperature;BMP_pressure;BME280_temperature;BME280_humidity;BME280_pressure;Samples;Min_cycle;Max_cycle;Signal;HPM_P1;HPM_P2
2022/08/02 00:00:12;;;;;;;0.10;0.10;;;;;;;22.29;48.44;100961.50;5012811;28;20112;-87
2022/08/02 00:02:37;;;;;;;0.10;0.10;;;;;;;22.14;48.18;100949.78;5029467;28;20422;-86
2022/08/02 00:05:04;;;;;;;0.10;0.10;;;;;;;22.15;48.43;100957.53;5012881;28;20652;-87
2022/08/02 00:07:29;;;;;;;0.10;0.10;;;;;;;22.19;48.40;100966.78;5029405;28;20514;-89
2022/08/02 00:09:55;;;;;;;0.10;0.10;;;;;;;22.21;48.36;100966.66;5013219;28;20029;-88
2022/08/02 00:12:20;;;;;;;0.10;0.10;;;;;;;22.11;48.20;100950.03;5012974;28;20068;-87
2022/08/02 00:14:46;;;;;;;0.10;0.10;;;;;;;22.16;48.54;100959.19;5062625;28;20025;-88
2022/08/02 00:17:11;;;;;;;0.10;0.10;;;;;;;22.03;48.58;100941.03;5012566;28;20116;-87
2022/08/02 00:19:37;;;;;;;0.10;0.10;;;;;;;22.13;48.28;100953.38;5029331;28;20030;-87
2022/08/02 00:22:02;;;;;;;0.10;0.10;;;;;;;22.18;48.20;100972.22;5045864;28;20566;-87
2022/08/02 00:24:28;;;;;;;0.10;0.10;;;;;;;22.17;48.24;100967.91;5012926;28;20088;-88
2022/08/02 00:26:53;;;;;;;0.10;0.10;;;;;;;22.00;48.38;100948.34;5029556;28;20494;-87
2022/08/02 00:29:19;;;;;;;0.20;0.20;;;;;;;22.04;48.49;100952.38;5045755;28;20029;-87
2022/08/02 00:31:44;;;;;;;0.10;0.10;;;;;;;21.99;48.13;100952.78;5045319;28;20398;-88
2022/08/02 00:34:10;;;;;;;0.28;0.25;;;;;;;21.94;48.49;100952.41;5029487;28;20038;-88
2022/08/02 00:36:35;;;;;;;0.20;0.20;;;;;;;22.04;48.56;100970.81;5028866;28;20026;-88
2022/08/02 00:39:01;;;;;;;0.10;0.10;;;;;;;22.00;48.30;100959.72;5012406;28;20029;-87
2022/08/02 00:41:26;;;;;;;0.10;0.10;;;;;;;21.83;48.54;100947.28;5012717;28;20038;-88
2022/08/02 00:43:52;;;;;;;0.10;0.10;;;;;;;21.82;48.86;100958.75;5028751;28;20477;-87
2022/08/02 00:46:18;;;;;;;0.10;0.10;;;;;;;21.84;49.09;100954.22;5044938;28;20045;-88
2022/08/02 00:48:44;;;;;;;0.10;0.10;;;;;;;21.81;48.91;100959.75;5029006;28;20025;-88
2022/08/02 00:51:10;;;;;;;0.10;0.10;;;;;;;21.85;48.89;100963.78;5045426;28;20048;-88
2022/08/02 00:53:35;;;;;;;0.10;0.10;;;;;;;21.75;49.10;100961.13;5013157;28;20035;-87
2022/08/02 00:56:01;;;;;;;0.10;0.10;;;;;;;21.83;49.16;100964.84;5016054;28;20030;-87
2022/08/02 00:58:27;;;;;;;0.20;0.20;;;;;;;21.72;49.28;100960.56;5049085;28;20152;-88
2022/08/02 01:00:52;;;;;;;0.10;0.10;;;;;;;21.81;49.40;100961.53;5015383;28;20038;-87
2022/08/02 01:03:18;;;;;;;0.10;0.10;;;;;;;21.79;49.36;100960.84;5032468;28;20031;-86
2022/08/02 01:05:43;;;;;;;0.10;0.10;;;;;;;21.73;49.20;100962.25;5032069;28;20040;-87
2022/08/02 01:08:09;;;;;;;0.20;0.20;;;;;;;21.67;49.40;100966.25;5032406;28;20406;-86
2022/08/02 01:10:35;;;;;;;0.10;0.10;;;;;;;21.63;49.30;100962.25;5032257;28;20517;-87
2022/08/02 01:13:00;;;;;;;0.10;0.10;;;;;;;21.57;49.26;100960.16;5032641;28;20033;-87
2022/08/02 01:15:26;;;;;;;0.10;0.10;;;;;;;21.56;49.91;100970.84;5048489;28;20037;-87
2022/08/02 01:18:25;;;;;;;0.10;0.10;;;;;;;21.53;49.75;100969.28;5048688;28;20411;-88
2022/08/02 01:21:11;;;;;;;0.10;0.10;;;;;;;21.47;50.09;100973.31;5044112;28;20111;-87
2022/08/02 01:24:14;;;;;;;0.10;0.10;;;;;;;21.42;50.09;100970.25;5031993;28;20025;-87
2022/08/02 01:26:47;;;;;;;0.10;0.10;;;;;;;21.40;50.05;100966.09;5032861;28;20343;-87
2022/08/02 01:29:17;;;;;;;0.10;0.10;;;;;;;21.31;50.23;100974.81;5031718;28;20775;-87
2022/08/02 01:31:49;;;;;;;0.10;0.10;;;;;;;21.21;50.27;100948.44;5031646;28;20025;-87
2022/08/02 01:34:46;;;;;;;0.10;0.10;;;;;;;21.24;50.22;100966.63;5015525;28;20034;-86
2022/08/02 01:37:21;;;;;;;0.10;0.10;;;;;;;21.13;50.68;100972.78;5018074;28;20040;-87
2022/08/02 01:39:49;;;;;;;0.10;0.10;;;;;;;21.10;50.96;100969.63;5015436;28;20068;-88
2022/08/02 01:42:15;;;;;;;0.10;0.10;;;;;;;20.87;50.93;100942.69;5031337;28;20491;-87
2022/08/02 01:44:41;;;;;;;0.20;0.20;;;;;;;20.70;51.46;100935.44;5031303;28;20037;-87
2022/08/02 01:47:18;;;;;;;0.10;0.10;;;;;;;20.95;51.44;100965.72;5031419;28;20061;-87
2022/08/02 01:49:45;;;;;;;0.10;0.10;;;;;;;20.74;51.76;100957.84;5016997;28;20402;-87
2022/08/02 01:52:23;;;;;;;0.10;0.10;;;;;;;20.71;51.96;100977.38;5031586;28;20026;-88
2022/08/02 01:55:07;;;;;;;0.10;0.10;;;;;;;20.68;52.17;100975.00;5031381;28;20068;-88
2022/08/02 01:57:39;;;;;;;0.10;0.10;;;;;;;20.57;52.48;100982.97;5031357;28;20025;-88
2022/08/02 02:00:06;;;;;;;0.10;0.10;;;;;;;20.50;52.74;100979.19;5031484;28;20383;-87
2022/08/02 02:02:32;;;;;;;0.13;0.13;;;;;;;20.47;53.05;100982.09;5031344;28;20483;-87
2022/08/02 02:04:57;;;;;;;0.10;0.10;;;;;;;20.34;53.15;100983.09;5014853;28;20029;-88
2022/08/02 02:07:23;;;;;;;0.10;0.10;;;;;;;20.29;53.30;100973.94;5031576;28;20036;-87
2022/08/02 02:09:48;;;;;;;0.10;0.10;;;;;;;20.39;53.28;100984.50;5014339;28;20034;-87
2022/08/02 02:12:14;;;;;;;0.10;0.10;;;;;;;20.43;53.33;100992.03;5014802;28;20030;-86
2022/08/02 02:14:41;;;;;;;0.10;0.10;;;;;;;20.25;53.58;100973.34;5014175;28;20033;-87
2022/08/02 02:17:06;;;;;;;0.10;0.10;;;;;;;20.28;53.72;100993.28;5030796;28;20510;-87
2022/08/02 02:19:33;;;;;;;0.10;0.10;;;;;;;20.24;53.58;100982.19;5014556;28;20048;-87
2022/08/02 02:21:58;;;;;;;0.10;0.10;;;;;;;20.08;53.39;100955.56;5031344;28;20446;-87
2022/08/02 02:24:24;;;;;;;0.20;0.20;;;;;;;20.31;53.32;100980.72;5014385;28;20529;-87
2022/08/02 02:26:49;;;;;;;0.10;0.10;;;;;;;20.30;53.19;100989.56;5031232;28;20061;-87
2022/08/02 02:29:14;;;;;;;0.10;0.10;;;;;;;20.23;53.51;100983.16;5030612;28;20061;-88
2022/08/02 02:31:42;;;;;;;0.10;0.10;;;;;;;20.29;53.71;100995.78;5030848;28;20501;-87
2022/08/02 02:34:10;;;;;;;0.20;0.20;;;;;;;20.34;53.56;100985.72;5030808;28;20494;-87
2022/08/02 02:36:37;;;;;;;0.10;0.10;;;;;;;20.26;53.62;100974.22;5047224;28;20037;-87
2022/08/02 02:39:05;;;;;;;0.40;0.40;;;;;;;20.34;53.83;100993.59;5030732;28;20053;-87
2022/08/02 02:41:31;;;;;;;0.10;0.10;;;;;;;20.31;53.54;100987.78;5030963;28;20044;-87
2022/08/02 02:43:58;;;;;;;0.10;0.10;;;;;;;20.27;53.53;100983.75;5030122;28;20479;-88
2022/08/02 02:46:24;;;;;;;0.10;0.10;;;;;;;20.23;53.78;100985.78;5030381;28;20050;-87
2022/08/02 02:48:50;;;;;;;0.25;0.25;;;;;;;20.21;53.98;100984.25;5047020;28;20034;-87
2022/08/02 02:51:15;;;;;;;0.10;0.10;;;;;;;20.34;53.69;100992.75;5014037;28;20133;-87
2022/08/02 02:53:42;;;;;;;0.10;0.10;;;;;;;20.19;53.20;100963.38;5046758;28;20029;-88
2022/08/02 02:56:07;;;;;;;0.10;0.10;;;;;;;20.40;53.79;101008.03;5030557;28;20034;-87
2022/08/02 02:58:32;;;;;;;0.10;0.10;;;;;;;20.26;53.47;101001.31;5013905;28;20033;-86
2022/08/02 03:03:43;;;;;;;0.10;0.10;;;;;;;20.38;53.91;101012.59;5016497;28;20060;-86
2022/08/02 03:06:08;;;;;;;0.20;0.20;;;;;;;20.45;54.22;101010.28;5046811;28;20418;-87
2022/08/02 03:08:34;;;;;;;0.10;0.10;;;;;;;20.47;53.71;101013.63;5046601;28;20029;-86
2022/08/02 03:10:59;;;;;;;0.10;0.10;;;;;;;20.21;53.74;100966.69;5046350;28;20480;-86
2022/08/02 03:13:25;;;;;;;0.10;0.10;;;;;;;20.45;52.98;101000.63;5030059;28;20036;-86
2022/08/02 03:15:52;;;;;;;0.10;0.10;;;;;;;20.55;52.85;101017.28;5013346;28;20037;-86
2022/08/02 03:18:34;;;;;;;0.10;0.10;;;;;;;20.46;52.99;101018.06;5029852;28;20030;-86
2022/08/02 03:21:07;;;;;;;0.10;0.10;;;;;;;20.48;52.95;101020.56;5013936;28;20026;-86
2022/08/02 03:23:32;;;;;;;0.10;0.10;;;;;;;20.32;53.16;101008.66;5014472;28;20037;-86
2022/08/02 03:25:58;;;;;;;0.20;0.20;;;;;;;20.37;53.38;101004.84;5029431;28;20037;-86
2022/08/02 03:28:23;;;;;;;0.10;0.10;;;;;;;20.49;53.21;101020.41;5046420;28;20032;-86
2022/08/02 03:30:49;;;;;;;0.10;0.10;;;;;;;20.50;53.49;101008.94;5029749;28;20056;-87
2022/08/02 03:33:14;;;;;;;0.20;0.20;;;;;;;20.71;52.66;101016.81;5046037;28;20037;-87
2022/08/02 03:35:40;;;;;;;0.10;0.10;;;;;;;20.57;52.88;100998.75;5030025;28;20087;-86
2022/08/02 03:38:06;;;;;;;0.10;0.10;;;;;;;20.42;53.19;101016.59;4997048;28;20033;-86
2022/08/02 03:40:31;;;;;;;0.10;0.10;;;;;;;20.33;53.49;101015.56;5029529;28;21048;-86
2022/08/02 03:42:57;;;;;;;0.15;0.15;;;;;;;20.20;53.67;101012.31;5029272;28;20033;-86
2022/08/02 03:45:23;;;;;;;0.10;0.10;;;;;;;20.05;54.27;101021.44;5013582;28;20505;-87
2022/08/02 03:47:48;;;;;;;0.10;0.10;;;;;;;20.20;54.28;101022.00;5029556;28;20053;-86
2022/08/02 03:50:14;;;;;;;0.10;0.10;;;;;;;20.33;54.05;101023.47;5012986;28;20033;-86
2022/08/02 03:52:41;;;;;;;0.10;0.10;;;;;;;20.24;53.89;101024.22;5029299;28;20490;-86
2022/08/02 03:55:08;;;;;;;0.10;0.10;;;;;;;20.32;53.93;101027.06;5046174;28;20402;-86
2022/08/02 03:57:36;;;;;;;0.10;0.10;;;;;;;20.32;54.04;101032.31;5013283;28;20025;-87
2022/08/02 04:00:02;;;;;;;0.10;0.10;;;;;;;20.35;54.00;101044.34;5013027;28;20095;-85
2022/08/02 04:02:27;;;;;;;0.10;0.10;;;;;;;20.41;54.22;101040.38;5050444;28;20575;-86
2022/08/02 04:04:53;;;;;;;0.10;0.10;;;;;;;20.32;54.12;101034.09;5030339;28;20033;-86
2022/08/02 04:07:18;;;;;;;0.10;0.10;;;;;;;20.32;54.06;101047.25;5047159;28;20422;-86
2022/08/02 04:09:44;;;;;;;0.10;0.10;;;;;;;20.14;54.71;101031.19;5031909;28;20033;-92
2022/08/02 04:12:09;;;;;;;0.10;0.10;;;;;;;20.37;54.37;101057.38;5032188;28;20486;-86
2022/08/02 04:14:35;;;;;;;0.10;0.10;;;;;;;20.54;54.37;101052.38;5016118;28;20040;-88
2022/08/02 04:17:01;;;;;;;0.10;0.10;;;;;;;20.57;53.77;101056.59;5031579;28;20033;-82
2022/08/02 04:19:38;;;;;;;0.10;0.10;;;;;;;20.64;54.25;101060.34;5015919;28;20067;-82
2022/08/02 04:22:03;;;;;;;0.10;0.10;;;;;;;20.65;53.56;101054.16;5050029;28;20033;-82
2022/08/02 04:24:32;;;;;;;0.10;0.10;;;;;;;20.55;54.33;101042.72;5032988;28;20574;-83
2022/08/02 04:26:58;;;;;;;0.10;0.10;;;;;;;20.70;53.25;101061.63;5048830;28;20033;-85
2022/08/02 04:29:24;;;;;;;0.10;0.10;;;;;;;21.10;53.15;101062.50;5034800;28;20021;-92
2022/08/02 04:31:50;;;;;;;0.10;0.10;;;;;;;21.25;52.58;101057.75;5026646;28;20025;-94
2022/08/02 04:34:16;;;;;;;0.20;0.20;;;;;;;21.23;53.04;101064.91;5039889;28;20037;-90
2022/08/02 04:36:41;;;;;;;0.10;0.10;;;;;;;21.20;54.12;101065.19;5035794;28;20490;-94
2022/08/02 04:39:07;;;;;;;0.10;0.10;;;;;;;21.24;53.12;101066.59;5036821;28;20048;-92
2022/08/02 04:41:43;;;;;;;0.10;0.10;;;;;;;21.23;52.32;101064.91;5020717;28;20059;-89
2022/08/02 04:44:08;;;;;;;0.10;0.10;;;;;;;21.32;52.63;101069.41;5053284;28;20025;-92
2022/08/02 04:46:37;;;;;;;0.10;0.10;;;;;;;21.30;53.14;101066.09;5038430;28;20045;-92
2022/08/02 04:49:03;;;;;;;0.10;0.10;;;;;;;21.67;51.74;101076.84;5041457;28;20052;-93
2022/08/02 04:51:29;;;;;;;0.10;0.10;;;;;;;21.56;52.54;101068.25;5028907;28;20037;-92
2022/08/02 04:53:55;;;;;;;0.10;0.10;;;;;;;21.74;51.98;101075.34;5057529;28;20092;-92
2022/08/02 04:56:20;;;;;;;0.10;0.10;;;;;;;21.84;51.99;101070.09;5035789;28;20124;-90
2022/08/02 04:58:46;;;;;;;0.10;0.10;;;;;;;21.80;51.66;101081.03;5054011;28;20037;-95
2022/08/02 05:01:11;;;;;;;0.10;0.10;;;;;;;21.95;52.22;101091.03;5055978;28;20079;-93
2022/08/02 05:03:37;;;;;;;0.17;0.17;;;;;;;22.11;51.64;101085.25;5035311;28;20456;-90
2022/08/02 05:06:02;;;;;;;0.20;0.20;;;;;;;22.09;51.55;101079.28;5035807;28;20029;-91
2022/08/02 05:08:28;;;;;;;0.17;0.17;;;;;;;22.26;50.91;101081.22;5035895;28;20116;-92
2022/08/02 05:10:54;;;;;;;0.10;0.10;;;;;;;22.27;50.65;101092.59;5052755;28;20056;-89
2022/08/02 05:13:19;;;;;;;0.10;0.10;;;;;;;22.67;51.14;101094.22;5034413;28;20029;-89
2022/08/02 05:15:48;;;;;;;0.10;0.10;;;;;;;23.09;49.94;101086.75;5035385;28;20024;-87
2022/08/02 05:18:13;;;;;;;0.28;0.28;;;;;;;23.38;49.25;101089.28;5054282;28;20041;-88
2022/08/02 05:20:39;;;;;;;0.20;0.20;;;;;;;23.44;49.76;101089.53;5051848;28;20033;-89
2022/08/02 05:23:04;;;;;;;0.20;0.20;;;;;;;23.50;48.53;101082.84;5034517;28;20481;-89
2022/08/02 05:25:30;;;;;;;0.10;0.10;;;;;;;23.58;48.84;101100.56;5034969;28;20039;-90
2022/08/02 05:27:55;;;;;;;0.28;0.28;;;;;;;23.73;49.13;101094.66;5051615;28;20032;-92
2022/08/02 05:30:21;;;;;;;0.10;0.10;;;;;;;23.55;48.58;101075.28;5018228;28;20128;-87
2022/08/02 05:32:47;;;;;;;0.20;0.20;;;;;;;23.48;49.04;101095.34;5051507;28;20093;-84
2022/08/02 05:35:13;;;;;;;0.10;0.10;;;;;;;23.43;48.92;101097.59;5034619;28;20033;-85
2022/08/02 05:37:38;;;;;;;0.20;0.20;;;;;;;23.47;48.90;101080.47;5034162;28;20029;-85
2022/08/02 05:40:04;;;;;;;0.17;0.17;;;;;;;23.74;49.01;101104.25;5050775;28;20025;-87
2022/08/02 05:42:31;;;;;;;0.10;0.10;;;;;;;23.66;48.94;101096.22;5050607;28;20051;-85
2022/08/02 05:44:56;;;;;;;0.20;0.20;;;;;;;23.69;47.83;101103.03;5051233;28;20179;-85
2022/08/02 05:47:23;;;;;;;0.10;0.10;;;;;;;23.75;47.79;101107.72;5050512;28;20072;-89
2022/08/02 05:49:48;;;;;;;0.10;0.10;;;;;;;23.76;48.36;101098.81;5036248;28;20555;-90
2022/08/02 05:52:18;;;;;;;0.20;0.20;;;;;;;23.87;48.18;101100.41;4993050;28;20050;-87
2022/08/02 05:54:49;;;;;;;0.10;0.10;;;;;;;24.08;47.84;101114.16;5009563;28;20153;-85
2022/08/02 05:57:35;;;;;;;0.20;0.20;;;;;;;24.31;48.54;101118.06;5010195;28;20116;-83
2022/08/02 06:00:09;;;;;;;0.10;0.10;;;;;;;24.46;46.86;101112.22;5010689;28;20030;-87
2022/08/02 06:02:44;;;;;;;0.13;0.13;;;;;;;24.44;46.78;101107.06;5011111;28;20026;-91
2022/08/02 06:05:13;;;;;;;0.10;0.10;;;;;;;24.62;45.78;101112.34;5027248;28;20026;-94
2022/08/02 06:07:43;;;;;;;0.10;0.10;;;;;;;24.50;46.41;101111.78;5009874;28;20034;-87
2022/08/02 06:10:14;;;;;;;0.10;0.10;;;;;;;24.59;47.18;101120.59;4994990;28;20138;-93
2022/08/02 06:12:46;;;;;;;0.10;0.10;;;;;;;24.80;47.28;101109.66;4994356;28;20030;-92
2022/08/02 06:15:13;;;;;;;0.10;0.10;;;;;;;24.94;46.83;101118.84;5011889;28;20176;-90
2022/08/02 06:17:39;;;;;;;0.10;0.10;;;;;;;25.02;45.17;101118.91;4995858;28;20040;-93
2022/08/02 06:20:05;;;;;;;0.10;0.10;;;;;;;25.11;46.42;101123.28;4995565;28;20029;-90
2022/08/02 06:22:30;;;;;;;0.20;0.20;;;;;;;25.24;45.25;101126.31;4998366;28;20026;-86
2022/08/02 06:24:56;;;;;;;0.10;0.10;;;;;;;25.29;43.87;101120.56;4988311;28;20033;-86
2022/08/02 06:27:23;;;;;;;0.15;0.15;;;;;;;25.32;45.87;101101.69;5002812;28;20056;-83
2022/08/02 06:29:49;;;;;;;0.20;0.20;;;;;;;25.54;43.60;101134.72;4993919;28;20030;-84
2022/08/02 06:32:18;;;;;;;0.20;0.20;;;;;;;25.55;43.59;101118.66;4992692;28;20089;-84
2022/08/02 06:34:43;;;;;;;0.10;0.10;;;;;;;25.70;43.35;101124.22;4981415;28;20030;-86
2022/08/02 06:37:26;;;;;;;0.10;0.10;;;;;;;25.50;43.66;101107.72;5009544;28;20074;-82
2022/08/02 06:39:58;;;;;;;0.10;0.10;;;;;;;25.51;43.53;101127.91;5010169;28;20048;-86
2022/08/02 06:42:26;;;;;;;0.10;0.10;;;;;;;25.67;43.52;101129.81;5008846;28;20029;-85
2022/08/02 06:44:52;;;;;;;0.20;0.20;;;;;;;25.74;43.13;101109.63;5000169;28;20035;-85
2022/08/02 06:47:17;;;;;;;0.10;0.10;;;;;;;25.79;42.15;101139.13;5005504;28;20046;-87
2022/08/02 06:49:43;;;;;;;0.20;0.20;;;;;;;25.89;42.55;101128.41;5007063;28;20026;-85
2022/08/02 06:52:09;;;;;;;0.10;0.10;;;;;;;25.88;42.84;101116.97;4994263;28;20049;-89
2022/08/02 06:54:36;;;;;;;0.20;0.20;;;;;;;26.05;43.40;101123.09;5008328;28;20037;-87
2022/08/02 06:57:01;;;;;;;0.28;0.28;;;;;;;26.05;42.65;101133.72;5009429;28;20488;-85
2022/08/02 06:59:27;;;;;;;0.20;0.20;;;;;;;26.10;41.78;101115.50;5007386;28;20093;-86
2022/08/02 07:01:53;;;;;;;0.17;0.17;;;;;;;26.25;41.27;101129.78;4992122;28;20056;-83
2022/08/02 07:04:18;;;;;;;0.20;0.20;;;;;;;26.30;41.54;101138.06;5008935;28;20033;-85
2022/08/02 07:06:44;;;;;;;0.30;0.20;;;;;;;26.21;41.98;101132.91;4989789;28;20026;-84
2022/08/02 07:09:09;;;;;;;0.20;0.20;;;;;;;26.05;42.04;101106.38;5006282;28;20058;-92
2022/08/02 07:11:35;;;;;;;0.10;0.10;;;;;;;26.35;42.81;101134.94;4992322;28;20053;-90
2022/08/02 07:14:00;;;;;;;0.20;0.20;;;;;;;26.52;41.88;101131.28;4992110;28;20416;-85
2022/08/02 07:16:26;;;;;;;0.45;0.22;;;;;;;26.46;42.28;101113.41;5000354;28;20033;-84
2022/08/02 07:18:51;;;;;;;0.10;0.10;;;;;;;26.66;41.68;101139.59;5008428;28;20088;-82
2022/08/02 07:21:17;;;;;;;0.20;0.20;;;;;;;26.71;41.32;101129.28;4975975;28;20053;-85
2022/08/02 07:23:42;;;;;;;0.20;0.20;;;;;;;26.66;41.40;101100.63;4976480;28;20034;-85
2022/08/02 07:26:08;;;;;;;0.10;0.10;;;;;;;26.86;40.68;101122.31;5009599;28;20026;-85
2022/08/02 07:28:33;;;;;;;0.20;0.20;;;;;;;26.97;39.77;101118.47;4976405;28;20030;-86
2022/08/02 07:30:59;;;;;;;0.20;0.20;;;;;;;27.01;40.65;101125.91;5010427;28;20030;-90
2022/08/02 07:33:26;;;;;;;0.90;0.90;;;;;;;27.09;39.41;101117.13;5011808;28;20479;-88
2022/08/02 07:35:51;;;;;;;0.20;0.20;;;;;;;27.14;40.54;101109.50;4993951;28;20392;-90
2022/08/02 07:38:17;;;;;;;0.10;0.10;;;;;;;27.20;39.49;101110.63;5014821;28;20041;-95
2022/08/02 07:40:42;;;;;;;0.20;0.20;;;;;;;27.23;39.49;101118.22;4994145;28;20033;-89
2022/08/02 07:43:08;;;;;;;0.80;0.73;;;;;;;27.05;39.37;101102.53;4993589;28;20867;-84
2022/08/02 07:45:33;;;;;;;0.20;0.20;;;;;;;27.26;40.02;101112.59;4993083;28;20700;-91
2022/08/02 07:47:59;;;;;;;0.20;0.20;;;;;;;27.52;39.83;101113.13;5010020;28;20484;-93
2022/08/02 07:50:27;;;;;;;0.20;0.20;;;;;;;27.77;38.93;101118.34;4994013;28;20380;-92
2022/08/02 07:52:52;;;;;;;0.10;0.10;;;;;;;27.87;39.25;101111.81;4995783;28;20075;-87
2022/08/02 07:55:18;;;;;;;0.20;0.20;;;;;;;27.95;37.67;101100.28;5009687;28;20025;-92
2022/08/02 07:57:43;;;;;;;0.17;0.17;;;;;;;27.81;37.50;101104.53;4993952;28;20069;-89
2022/08/02 08:00:09;;;;;;;0.20;0.20;;;;;;;27.98;38.31;101114.06;5010409;28;20541;-89
2022/08/02 08:02:35;;;;;;;0.20;0.20;;;;;;;28.18;38.82;101108.25;4992820;28;20030;-87
2022/08/02 08:05:01;;;;;;;0.20;0.20;;;;;;;28.43;37.34;101111.59;4996642;28;20029;-91
2022/08/02 08:07:26;;;;;;;0.68;0.40;;;;;;;28.55;36.72;101104.81;4978812;28;20408;-90
2022/08/02 08:09:52;;;;;;;0.20;0.20;;;;;;;28.63;36.38;101115.41;4997166;28;20030;-89
2022/08/02 08:12:17;;;;;;;0.10;0.10;;;;;;;28.68;37.48;101110.34;4996508;28;20123;-89
2022/08/02 08:14:43;;;;;;;0.20;0.20;;;;;;;28.80;35.96;101105.38;5015950;28;20026;-88
2022/08/02 08:17:09;;;;;;;0.47;0.30;;;;;;;28.86;36.11;101110.00;4996612;28;20034;-91
2022/08/02 08:19:34;;;;;;;0.20;0.20;;;;;;;28.82;36.34;101098.06;4997434;28;20100;-87
2022/08/02 08:22:00;;;;;;;0.52;0.52;;;;;;;28.94;36.34;101109.94;4996615;28;20029;-89
2022/08/02 08:24:26;;;;;;;0.22;0.22;;;;;;;28.96;36.35;101101.75;5012933;28;20036;-89
2022/08/02 08:26:52;;;;;;;0.20;0.20;;;;;;;29.05;35.78;101095.34;4981122;28;20033;-91
2022/08/02 08:29:18;;;;;;;0.20;0.20;;;;;;;29.22;35.99;101101.31;5012533;28;20044;-94
2022/08/02 08:31:43;;;;;;;0.20;0.20;;;;;;;29.19;36.08;101096.31;4996807;28;20030;-94
2022/08/02 08:34:09;;;;;;;0.30;0.30;;;;;;;29.22;34.48;101102.13;4998845;28;20415;-93
2022/08/02 08:36:34;;;;;;;0.20;0.20;;;;;;;29.26;34.72;101100.75;5013297;28;20064;-88
2022/08/02 08:39:00;;;;;;;0.20;0.20;;;;;;;29.22;35.23;101102.13;4996184;28;20038;-83
2022/08/02 08:41:25;;;;;;;0.30;0.30;;;;;;;29.19;35.21;101091.81;5012457;28;20029;-88
2022/08/02 08:43:51;;;;;;;0.20;0.20;;;;;;;29.29;34.16;101104.84;5013024;28;20767;-84
2022/08/02 08:46:28;;;;;;;0.20;0.20;;;;;;;29.37;34.01;101094.09;4995737;28;20112;-85
2022/08/02 08:48:59;;;;;;;0.20;0.20;;;;;;;29.40;33.86;101081.25;5011896;28;20022;-92
2022/08/02 08:51:25;;;;;;;0.30;0.30;;;;;;;29.68;33.09;101088.53;4995752;28;20037;-89
2022/08/02 08:53:52;;;;;;;0.10;0.10;;;;;;;29.52;33.94;101097.59;5011531;28;20037;-87
2022/08/02 08:56:18;;;;;;;0.30;0.30;;;;;;;29.37;33.28;101089.59;4996791;28;20030;-92
2022/08/02 08:58:46;;;;;;;0.30;0.30;;;;;;;29.27;34.05;101083.72;4996183;28;20113;-90
2022/08/02 09:01:12;;;;;;;0.20;0.20;;;;;;;29.51;33.41;101090.63;4996595;28;20041;-89
2022/08/02 09:03:38;;;;;;;0.20;0.20;;;;;;;29.31;33.91;101069.03;4995768;28;20034;-85
2022/08/02 09:06:03;;;;;;;0.25;0.25;;;;;;;29.50;33.83;101088.97;4991386;28;20057;-88
2022/08/02 09:08:29;;;;;;;0.30;0.30;;;;;;;29.63;33.49;101088.28;5013241;28;20495;-87
2022/08/02 09:10:55;;;;;;;0.30;0.30;;;;;;;29.63;31.66;101078.44;4995435;28;20029;-85
2022/08/02 09:13:22;;;;;;;0.20;0.20;;;;;;;29.94;32.34;101086.16;4995456;28;20030;-90
2022/08/02 09:16:02;;;;;;;0.20;0.20;;;;;;;29.99;31.55;101083.75;4995344;28;20022;-87
2022/08/02 09:18:31;;;;;;;0.20;0.20;;;;;;;30.20;31.62;101074.09;4993947;28;20034;-86
2022/08/02 09:20:59;;;;;;;0.20;0.20;;;;;;;30.44;30.89;101070.19;5010982;28;20415;-89
2022/08/02 09:23:25;;;;;;;0.20;0.20;;;;;;;30.50;30.94;101067.56;4995795;28;20684;-88
2022/08/02 09:26:05;;;;;;;0.20;0.20;;;;;;;30.82;31.01;101057.31;5011026;28;20034;-87
2022/08/02 09:28:33;;;;;;;0.43;0.43;;;;;;;31.10;30.05;101076.75;4977897;28;20124;-85
2022/08/02 09:31:03;;;;;;;0.20;0.20;;;;;;;31.03;29.84;101065.22;4995575;28;20026;-86
2022/08/02 09:33:28;;;;;;;0.20;0.20;;;;;;;30.96;29.05;101068.88;5013205;28;20029;-86
2022/08/02 09:36:02;;;;;;;0.20;0.20;;;;;;;30.83;30.08;101061.63;5011909;28;20058;-91
2022/08/02 09:38:28;;;;;;;0.20;0.20;;;;;;;30.77;30.26;101049.03;4995265;28;20513;-85
2022/08/02 09:40:54;;;;;;;0.20;0.20;;;;;;;30.87;30.39;101057.53;5011489;28;20034;-85
2022/08/02 09:43:22;;;;;;;0.47;0.30;;;;;;;31.08;29.74;101061.97;4978782;28;20443;-88
2022/08/02 09:45:47;;;;;;;0.20;0.20;;;;;;;31.09;30.26;101060.94;5011082;28;20112;-86
2022/08/02 09:48:13;;;;;;;0.30;0.30;;;;;;;31.16;29.49;101053.75;4995715;28;20030;-89
2022/08/02 09:50:39;;;;;;;0.20;0.20;;;;;;;31.24;28.54;101058.13;4991507;28;20030;-90
2022/08/02 09:53:05;;;;;;;0.20;0.20;;;;;;;31.27;28.57;101042.53;4991830;28;20026;-88
2022/08/02 09:55:30;;;;;;;0.20;0.20;;;;;;;31.53;27.91;101060.50;4975427;28;20026;-88
2022/08/02 09:57:56;;;;;;;0.45;0.45;;;;;;;31.36;27.58;101045.84;4991056;28;20077;-87
2022/08/02 10:00:22;;;;;;;0.20;0.20;;;;;;;31.18;29.10;101050.91;5008957;28;20506;-86
2022/08/02 10:03:07;;;;;;;0.20;0.20;;;;;;;31.35;28.61;101044.19;5010943;28;20033;-87
2022/08/02 10:05:52;;;;;;;0.20;0.20;;;;;;;31.49;28.04;101048.56;4976351;28;20041;-88
2022/08/02 10:08:18;;;;;;;0.20;0.20;;;;;;;31.65;28.17;101033.97;5010875;28;20052;-89
2022/08/02 10:10:44;;;;;;;0.20;0.20;;;;;;;31.71;28.41;101037.69;4977085;28;20503;-88
2022/08/02 10:13:09;;;;;;;0.20;0.20;;;;;;;31.44;28.24;101026.94;4993612;28;20048;-89
2022/08/02 10:15:38;;;;;;;0.20;0.20;;;;;;;31.60;27.63;101031.91;4978588;28;20037;-88
2022/08/02 10:18:07;;;;;;;0.20;0.20;;;;;;;31.92;27.73;101030.34;4993197;28;20029;-86
2022/08/02 10:20:36;;;;;;;0.20;0.20;;;;;;;32.23;27.14;101031.56;5010945;28;20054;-90
2022/08/02 10:23:02;;;;;;;0.20;0.20;;;;;;;32.37;26.35;101033.22;4975010;28;20030;-86
2022/08/02 10:25:27;;;;;;;0.20;0.20;;;;;;;32.31;25.91;101012.63;4974671;28;20088;-86
2022/08/02 10:27:53;;;;;;;0.30;0.30;;;;;;;32.63;25.56;101016.25;4973808;28;20033;-85
2022/08/02 10:30:19;;;;;;;0.20;0.20;;;;;;;32.82;25.79;101017.22;4974791;28;20412;-85
2022/08/02 10:32:47;;;;;;;0.20;0.20;;;;;;;32.44;26.00;101003.75;4958820;28;20033;-86
2022/08/02 10:35:14;;;;;;;0.20;0.20;;;;;;;32.64;25.96;101017.91;4974992;28;20126;-85
2022/08/02 10:37:40;;;;;;;0.20;0.20;;;;;;;32.62;26.15;101006.59;4990270;28;20042;-85
2022/08/02 10:40:21;;;;;;;0.20;0.20;;;;;;;32.74;25.13;101010.28;4983487;28;20392;-91
2022/08/02 10:42:48;;;;;;;0.43;0.30;;;;;;;32.53;25.63;101006.00;4989803;28;20030;-85
2022/08/02 10:45:16;;;;;;;0.20;0.20;;;;;;;32.25;26.02;100998.22;4992451;28;20054;-88
2022/08/02 10:47:57;;;;;;;0.20;0.20;;;;;;;32.49;25.31;101002.09;4978616;28;20077;-89
2022/08/02 10:50:45;;;;;;;0.20;0.20;;;;;;;32.49;25.79;101006.63;5009954;28;20108;-89
2022/08/02 10:53:29;;;;;;;0.20;0.20;;;;;;;32.46;25.59;101007.06;5009847;28;20038;-85
2022/08/02 10:55:56;;;;;;;0.20;0.20;;;;;;;32.72;25.08;101006.97;5009252;28;20434;-85
2022/08/02 10:58:23;;;;;;;0.20;0.20;;;;;;;32.70;25.00;100997.50;4993721;28;20030;-93
2022/08/02 11:00:49;;;;;;;0.20;0.20;;;;;;;32.90;25.01;100984.88;4975830;28;20068;-88
2022/08/02 11:03:35;;;;;;;0.20;0.20;;;;;;;33.01;24.85;100999.47;5007427;28;20030;-90
2022/08/02 11:06:04;;;;;;;0.20;0.20;;;;;;;33.55;23.95;100984.75;4988034;28;20566;-87
2022/08/02 11:08:30;;;;;;;0.20;0.20;;;;;;;33.45;23.92;100989.78;5006847;28;20097;-91
2022/08/02 11:11:19;;;;;;;0.20;0.20;;;;;;;33.08;24.08;100982.31;4975623;28;20029;-93
2022/08/02 11:14:02;;;;;;;0.30;0.30;;;;;;;33.43;25.67;100986.47;4991314;28;20177;-88
2022/08/02 11:16:55;;;;;;;0.20;0.20;;;;;;;33.34;25.68;100967.94;4973946;28;20049;-93
2022/08/02 11:19:27;;;;;;;0.20;0.20;;;;;;;33.08;25.63;100971.59;5006629;28;20034;-87
2022/08/02 11:22:08;;;;;;;0.20;0.20;;;;;;;33.38;25.10;100969.19;5006621;28;20030;-94
2022/08/02 11:24:34;;;;;;;0.20;0.20;;;;;;;33.49;24.96;100970.34;5008756;28;20054;-89
2022/08/02 11:27:01;;;;;;;0.20;0.20;;;;;;;33.53;24.81;100965.34;4991664;28;20022;-92
2022/08/02 11:29:34;;;;;;;0.20;0.20;;;;;;;33.50;24.78;100955.88;4990025;28;20032;-92